sensor_id;sensor_type;location;lat;lon;timestamp;P1;durP1;ratioP1;P2;durP2;ratioP2
3355;SDS011;1691;52.486;13.374;2023-05-08T00:02:00;4.80;;;4.60;;
3355;SDS011;1691;52.486;13.374;2023-05-08T00:05:32;4.60;;;4.40;;
3355;SDS011;1691;52.486;13.374;2023-05-08T00:09:28;5.20;;;4.90;;
3355;SDS011;1691;52.486;13.374;2023-05-08T00:16:22;4.63;;;4.40;;
3355;SDS011;1691;52.486;13.374;2023-05-08T00:20:12;4.60;;;4.40;;
3355;SDS011;1691;52.486;13.374;2023-05-08T00:27:01;4.73;;;4.53;;
3355;SDS011;1691;52.486;13.374;2023-05-08T00:34:08;4.90;;;4.70;;
3355;SDS011;1691;52.486;13.374;2023-05-08T00:41:07;5.20;;;5.00;;
3355;SDS011;1691;52.486;13.374;2023-05-08T00:49:24;5.87;;;5.37;;
3355;SDS011;1691;52.486;13.374;2023-05-08T00:52:27;7.83;;;5.17;;
3355;SDS011;1691;52.486;13.374;2023-05-08T00:59:10;8.07;;;6.07;;
3355;SDS011;1691;52.486;13.374;2023-05-08T01:07:18;5.80;;;5.47;;
3355;SDS011;1691;52.486;13.374;2023-05-08T01:46:19;6.07;;;5.77;;
3355;SDS011;1691;52.486;13.374;2023-05-08T01:53:48;7.90;;;7.30;;
3355;SDS011;1691;52.486;13.374;2023-05-08T01:56:47;6.47;;;6.00;;
3355;SDS011;1691;52.486;13.374;2023-05-08T02:01:02;6.97;;;6.40;;
3355;SDS011;1691;52.486;13.374;2023-05-08T02:12:25;7.63;;;6.10;;
3355;SDS011;1691;52.486;13.374;2023-05-08T02:23:18;6.33;;;5.90;;
3355;SDS011;1691;52.486;13.374;2023-05-08T02:26:58;6.70;;;6.30;;
3355;SDS011;1691;52.486;13.374;2023-05-08T02:30:14;6.80;;;6.40;;
3355;SDS011;1691;52.486;13.374;2023-05-08T02:32:43;6.20;;;5.70;;
3355;SDS011;1691;52.486;13.374;2023-05-08T02:35:17;6.07;;;5.77;;
3355;SDS011;1691;52.486;13.374;2023-05-08T02:37:47;8.50;;;7.80;;
3355;SDS011;1691;52.486;13.374;2023-05-08T02:40:18;6.20;;;6.00;;
3355;SDS011;1691;52.486;13.374;2023-05-08T02:42:48;5.90;;;5.70;;
3355;SDS011;1691;52.486;13.374;2023-05-08T02:45:15;6.77;;;6.40;;
3355;SDS011;1691;52.486;13.374;2023-05-08T02:47:53;7.57;;;6.93;;
3355;SDS011;1691;52.486;13.374;2023-05-08T02:53:11;8.00;;;7.37;;
3355;SDS011;1691;52.486;13.374;2023-05-08T02:55:48;6.63;;;6.27;;
3355;SDS011;1691;52.486;13.374;2023-05-08T03:01:22;7.10;;;6.67;;
3355;SDS011;1691;52.486;13.374;2023-05-08T03:04:01;7.03;;;6.33;;
3355;SDS011;1691;52.486;13.374;2023-05-08T03:06:40;11.13;;;7.47;;
3355;SDS011;1691;52.486;13.374;2023-05-08T03:09:11;6.50;;;6.00;;
3355;SDS011;1691;52.486;13.374;2023-05-08T03:11:47;7.17;;;6.60;;
3355;SDS011;1691;52.486;13.374;2023-05-08T03:14:18;6.93;;;6.50;;
3355;SDS011;1691;52.486;13.374;2023-05-08T03:16:48;6.97;;;6.47;;
3355;SDS011;1691;52.486;13.374;2023-05-08T03:19:35;6.80;;;6.40;;
3355;SDS011;1691;52.486;13.374;2023-05-08T03:22:03;14.10;;;6.73;;
3355;SDS011;1691;52.486;13.374;2023-05-08T03:24:35;6.87;;;6.17;;
3355;SDS011;1691;52.486;13.374;2023-05-08T03:27:05;7.20;;;6.60;;
3355;SDS011;1691;52.486;13.374;2023-05-08T03:29:33;7.27;;;6.93;;
3355;SDS011;1691;52.486;13.374;2023-05-08T03:32:03;6.93;;;6.43;;
3355;SDS011;1691;52.486;13.374;2023-05-08T03:34:31;6.87;;;6.33;;
3355;SDS011;1691;52.486;13.374;2023-05-08T03:36:59;7.25;;;6.85;;
3355;SDS011;1691;52.486;13.374;2023-05-08T03:39:30;7.33;;;6.80;;
3355;SDS011;1691;52.486;13.374;2023-05-08T03:41:57;7.30;;;6.80;;
3355;SDS011;1691;52.486;13.374;2023-05-08T03:44:24;6.90;;;6.50;;
3355;SDS011;1691;52.486;13.374;2023-05-08T03:46:55;7.03;;;6.60;;
3355;SDS011;1691;52.486;13.374;2023-05-08T03:49:26;6.90;;;6.40;;
3355;SDS011;1691;52.486;13.374;2023-05-08T03:51:55;7.70;;;7.20;;
3355;SDS011;1691;52.486;13.374;2023-05-08T03:54:23;6.60;;;6.30;;
3355;SDS011;1691;52.486;13.374;2023-05-08T03:56:51;8.83;;;7.00;;
3355;SDS011;1691;52.486;13.374;2023-05-08T03:59:20;8.47;;;7.57;;
3355;SDS011;1691;52.486;13.374;2023-05-08T04:02:02;7.23;;;6.80;;
3355;SDS011;1691;52.486;13.374;2023-05-08T04:04:46;8.00;;;7.30;;
3355;SDS011;1691;52.486;13.374;2023-05-08T04:07:31;9.00;;;7.30;;
3355;SDS011;1691;52.486;13.374;2023-05-08T04:10:29;7.83;;;7.10;;
3355;SDS011;1691;52.486;13.374;2023-05-08T04:15:38;7.43;;;6.90;;
3355;SDS011;1691;52.486;13.374;2023-05-08T04:18:29;7.20;;;6.60;;
3355;SDS011;1691;52.486;13.374;2023-05-08T04:21:00;6.37;;;5.93;;
3355;SDS011;1691;52.486;13.374;2023-05-08T04:23:34;8.57;;;7.07;;
3355;SDS011;1691;52.486;13.374;2023-05-08T04:26:03;6.77;;;5.60;;
3355;SDS011;1691;52.486;13.374;2023-05-08T04:28:34;7.00;;;6.43;;
3355;SDS011;1691;52.486;13.374;2023-05-08T04:31:01;7.43;;;6.00;;
3355;SDS011;1691;52.486;13.374;2023-05-08T04:33:30;12.07;;;5.90;;
3355;SDS011;1691;52.486;13.374;2023-05-08T04:36:02;6.60;;;6.00;;
3355;SDS011;1691;52.486;13.374;2023-05-08T04:38:29;4.97;;;4.57;;
3355;SDS011;1691;52.486;13.374;2023-05-08T04:40:56;5.77;;;5.30;;
3355;SDS011;1691;52.486;13.374;2023-05-08T04:43:23;5.43;;;5.13;;
3355;SDS011;1691;52.486;13.374;2023-05-08T04:45:51;14.73;;;5.93;;
3355;SDS011;1691;52.486;13.374;2023-05-08T04:48:18;6.27;;;5.60;;
3355;SDS011;1691;52.486;13.374;2023-05-08T04:50:45;5.90;;;5.50;;
3355;SDS011;1691;52.486;13.374;2023-05-08T04:53:12;7.20;;;5.00;;
3355;SDS011;1691;52.486;13.374;2023-05-08T04:55:39;6.70;;;6.17;;
3355;SDS011;1691;52.486;13.374;2023-05-08T04:58:07;5.80;;;5.40;;
3355;SDS011;1691;52.486;13.374;2023-05-08T05:00:36;5.87;;;5.37;;
3355;SDS011;1691;52.486;13.374;2023-05-08T05:03:02;5.47;;;5.13;;
3355;SDS011;1691;52.486;13.374;2023-05-08T05:05:30;5.33;;;4.57;;
3355;SDS011;1691;52.486;13.374;2023-05-08T05:07:57;4.70;;;4.50;;
3355;SDS011;1691;52.486;13.374;2023-05-08T05:10:24;4.90;;;4.60;;
3355;SDS011;1691;52.486;13.374;2023-05-08T05:12:51;11.30;;;5.07;;
3355;SDS011;1691;52.486;13.374;2023-05-08T05:15:18;7.37;;;4.10;;
3355;SDS011;1691;52.486;13.374;2023-05-08T05:17:45;6.13;;;4.60;;
3355;SDS011;1691;52.486;13.374;2023-05-08T05:20:12;5.73;;;5.07;;
3355;SDS011;1691;52.486;13.374;2023-05-08T05:22:40;4.60;;;4.40;;
3355;SDS011;1691;52.486;13.374;2023-05-08T05:25:07;4.50;;;4.30;;
3355;SDS011;1691;52.486;13.374;2023-05-08T05:27:34;4.43;;;4.10;;
3355;SDS011;1691;52.486;13.374;2023-05-08T05:30:02;5.20;;;4.80;;
3355;SDS011;1691;52.486;13.374;2023-05-08T05:32:29;5.37;;;4.80;;
3355;SDS011;1691;52.486;13.374;2023-05-08T05:34:56;4.80;;;4.40;;
3355;SDS011;1691;52.486;13.374;2023-05-08T05:37:23;4.17;;;3.97;;
3355;SDS011;1691;52.486;13.374;2023-05-08T05:39:50;7.50;;;3.47;;
3355;SDS011;1691;52.486;13.374;2023-05-08T05:42:17;4.00;;;3.70;;
3355;SDS011;1691;52.486;13.374;2023-05-08T05:44:44;3.70;;;3.50;;
3355;SDS011;1691;52.486;13.374;2023-05-08T05:47:11;4.30;;;4.10;;
3355;SDS011;1691;52.486;13.374;2023-05-08T05:49:38;10.93;;;3.43;;
3355;SDS011;1691;52.486;13.374;2023-05-08T05:52:08;2.90;;;2.80;;
3355;SDS011;1691;52.486;13.374;2023-05-08T05:54:34;4.13;;;3.00;;
3355;SDS011;1691;52.486;13.374;2023-05-08T05:57:02;3.73;;;3.53;;
3355;SDS011;1691;52.486;13.374;2023-05-08T05:59:29;3.63;;;3.53;;
3355;SDS011;1691;52.486;13.374;2023-05-08T06:01:56;3.20;;;3.10;;
3355;SDS011;1691;52.486;13.374;2023-05-08T06:04:23;4.87;;;3.43;;
3355;SDS011;1691;52.486;13.374;2023-05-08T06:06:51;3.97;;;3.57;;
3355;SDS011;1691;52.486;13.374;2023-05-08T06:09:18;4.40;;;3.50;;
3355;SDS011;1691;52.486;13.374;2023-05-08T06:11:46;3.60;;;3.50;;
3355;SDS011;1691;52.486;13.374;2023-05-08T06:14:13;11.70;;;3.87;;
3355;SDS011;1691;52.486;13.374;2023-05-08T06:16:40;3.33;;;3.13;;
3355;SDS011;1691;52.486;13.374;2023-05-08T06:19:07;3.77;;;3.10;;
3355;SDS011;1691;52.486;13.374;2023-05-08T06:21:36;3.50;;;3.30;;
3355;SDS011;1691;52.486;13.374;2023-05-08T06:24:05;3.50;;;2.80;;
3355;SDS011;1691;52.486;13.374;2023-05-08T06:26:56;3.40;;;3.20;;
3355;SDS011;1691;52.486;13.374;2023-05-08T06:29:23;9.80;;;3.37;;
3355;SDS011;1691;52.486;13.374;2023-05-08T06:31:50;2.80;;;2.70;;
3355;SDS011;1691;52.486;13.374;2023-05-08T06:34:17;3.10;;;2.30;;
3355;SDS011;1691;52.486;13.374;2023-05-08T06:36:44;3.57;;;3.37;;
3355;SDS011;1691;52.486;13.374;2023-05-08T06:39:11;3.40;;;3.07;;
3355;SDS011;1691;52.486;13.374;2023-05-08T06:41:38;3.27;;;3.17;;
3355;SDS011;1691;52.486;13.374;2023-05-08T06:44:05;3.20;;;3.10;;
3355;SDS011;1691;52.486;13.374;2023-05-08T06:46:32;3.50;;;3.03;;
3355;SDS011;1691;52.486;13.374;2023-05-08T06:48:59;2.90;;;2.70;;
3355;SDS011;1691;52.486;13.374;2023-05-08T06:51:50;2.77;;;2.67;;
3355;SDS011;1691;52.486;13.374;2023-05-08T06:54:17;2.77;;;2.67;;
3355;SDS011;1691;52.486;13.374;2023-05-08T06:56:44;2.83;;;2.73;;
3355;SDS011;1691;52.486;13.374;2023-05-08T06:59:11;2.77;;;2.63;;
3355;SDS011;1691;52.486;13.374;2023-05-08T07:01:38;3.03;;;2.90;;
3355;SDS011;1691;52.486;13.374;2023-05-08T07:04:05;2.80;;;2.70;;
3355;SDS011;1691;52.486;13.374;2023-05-08T07:06:35;4.73;;;2.40;;
3355;SDS011;1691;52.486;13.374;2023-05-08T07:09:02;2.60;;;2.40;;
3355;SDS011;1691;52.486;13.374;2023-05-08T07:11:28;2.47;;;2.37;;
3355;SDS011;1691;52.486;13.374;2023-05-08T07:13:55;2.73;;;2.63;;
3355;SDS011;1691;52.486;13.374;2023-05-08T07:16:22;2.80;;;2.60;;
3355;SDS011;1691;52.486;13.374;2023-05-08T07:18:49;8.63;;;2.23;;
3355;SDS011;1691;52.486;13.374;2023-05-08T07:21:17;2.80;;;2.30;;
3355;SDS011;1691;52.486;13.374;2023-05-08T07:23:45;2.30;;;2.20;;
3355;SDS011;1691;52.486;13.374;2023-05-08T07:26:13;2.73;;;2.60;;
3355;SDS011;1691;52.486;13.374;2023-05-08T07:28:40;3.50;;;2.60;;
3355;SDS011;1691;52.486;13.374;2023-05-08T07:31:06;2.63;;;1.90;;
3355;SDS011;1691;52.486;13.374;2023-05-08T07:33:34;11.60;;;2.53;;
3355;SDS011;1691;52.486;13.374;2023-05-08T07:36:00;10.10;;;2.07;;
3355;SDS011;1691;52.486;13.374;2023-05-08T07:38:27;3.10;;;3.00;;
3355;SDS011;1691;52.486;13.374;2023-05-08T07:40:54;2.60;;;2.40;;
3355;SDS011;1691;52.486;13.374;2023-05-08T07:43:26;2.03;;;1.90;;
3355;SDS011;1691;52.486;13.374;2023-05-08T07:45:53;2.47;;;2.27;;
3355;SDS011;1691;52.486;13.374;2023-05-08T07:48:20;2.30;;;2.20;;
3355;SDS011;1691;52.486;13.374;2023-05-08T07:50:48;2.03;;;1.93;;
3355;SDS011;1691;52.486;13.374;2023-05-08T07:53:15;5.97;;;2.40;;
3355;SDS011;1691;52.486;13.374;2023-05-08T07:55:42;2.60;;;2.40;;
3355;SDS011;1691;52.486;13.374;2023-05-08T07:58:09;2.67;;;2.47;;
3355;SDS011;1691;52.486;13.374;2023-05-08T08:00:36;2.20;;;2.10;;
3355;SDS011;1691;52.486;13.374;2023-05-08T08:03:03;2.53;;;2.37;;
3355;SDS011;1691;52.486;13.374;2023-05-08T08:05:30;2.00;;;1.90;;
3355;SDS011;1691;52.486;13.374;2023-05-08T08:07:57;5.60;;;3.10;;
3355;SDS011;1691;52.486;13.374;2023-05-08T08:10:24;5.30;;;1.67;;
3355;SDS011;1691;52.486;13.374;2023-05-08T08:12:51;4.93;;;1.83;;
3355;SDS011;1691;52.486;13.374;2023-05-08T08:15:18;3.13;;;1.53;;
3355;SDS011;1691;52.486;13.374;2023-05-08T08:17:45;3.20;;;1.77;;
3355;SDS011;1691;52.486;13.374;2023-05-08T08:20:12;1.90;;;1.80;;
3355;SDS011;1691;52.486;13.374;2023-05-08T08:22:39;2.30;;;2.20;;
3355;SDS011;1691;52.486;13.374;2023-05-08T08:25:06;2.40;;;1.80;;
3355;SDS011;1691;52.486;13.374;2023-05-08T08:27:34;1.83;;;1.73;;
3355;SDS011;1691;52.486;13.374;2023-05-08T08:30:01;4.10;;;2.20;;
3355;SDS011;1691;52.486;13.374;2023-05-08T08:32:42;1.97;;;1.87;;
3355;SDS011;1691;52.486;13.374;2023-05-08T08:35:09;2.80;;;1.93;;
3355;SDS011;1691;52.486;13.374;2023-05-08T08:37:37;2.90;;;1.80;;
3355;SDS011;1691;52.486;13.374;2023-05-08T08:40:04;2.10;;;2.00;;
3355;SDS011;1691;52.486;13.374;2023-05-08T08:42:32;2.37;;;2.27;;
3355;SDS011;1691;52.486;13.374;2023-05-08T08:44:59;2.60;;;2.50;;
3355;SDS011;1691;52.486;13.374;2023-05-08T08:47:28;2.07;;;1.70;;
3355;SDS011;1691;52.486;13.374;2023-05-08T08:50:03;3.53;;;1.70;;
3355;SDS011;1691;52.486;13.374;2023-05-08T08:52:38;1.93;;;1.83;;
3355;SDS011;1691;52.486;13.374;2023-05-08T08:55:19;8.07;;;2.33;;
3355;SDS011;1691;52.486;13.374;2023-05-08T08:58:10;1.70;;;1.60;;
3355;SDS011;1691;52.486;13.374;2023-05-08T09:00:56;5.10;;;2.00;;
3355;SDS011;1691;52.486;13.374;2023-05-08T09:03:26;1.90;;;1.80;;
3355;SDS011;1691;52.486;13.374;2023-05-08T09:05:53;1.70;;;1.60;;
3355;SDS011;1691;52.486;13.374;2023-05-08T09:08:20;3.63;;;2.47;;
3355;SDS011;1691;52.486;13.374;2023-05-08T09:10:47;2.10;;;1.87;;
3355;SDS011;1691;52.486;13.374;2023-05-08T09:13:14;2.03;;;1.80;;
3355;SDS011;1691;52.486;13.374;2023-05-08T09:15:45;2.17;;;2.07;;
3355;SDS011;1691;52.486;13.374;2023-05-08T09:18:12;3.17;;;2.53;;
3355;SDS011;1691;52.486;13.374;2023-05-08T09:20:39;2.20;;;2.00;;
3355;SDS011;1691;52.486;13.374;2023-05-08T09:23:06;2.20;;;2.10;;
3355;SDS011;1691;52.486;13.374;2023-05-08T09:25:41;8.10;;;2.10;;
3355;SDS011;1691;52.486;13.374;2023-05-08T09:30:51;6.07;;;2.50;;
3355;SDS011;1691;52.486;13.374;2023-05-08T09:33:23;1.90;;;1.80;;
3355;SDS011;1691;52.486;13.374;2023-05-08T09:35:53;1.60;;;1.50;;
3355;SDS011;1691;52.486;13.374;2023-05-08T09:38:34;2.30;;;1.87;;
3355;SDS011;1691;52.486;13.374;2023-05-08T09:43:42;8.10;;;2.20;;
3355;SDS011;1691;52.486;13.374;2023-05-08T09:46:24;6.30;;;2.40;;
3355;SDS011;1691;52.486;13.374;2023-05-08T09:48:53;1.90;;;1.80;;
3355;SDS011;1691;52.486;13.374;2023-05-08T09:51:23;2.00;;;1.90;;
3355;SDS011;1691;52.486;13.374;2023-05-08T09:53:52;3.13;;;2.27;;
3355;SDS011;1691;52.486;13.374;2023-05-08T09:56:34;1.80;;;1.70;;
3355;SDS011;1691;52.486;13.374;2023-05-08T09:59:20;1.90;;;1.80;;
3355;SDS011;1691;52.486;13.374;2023-05-08T10:01:52;3.57;;;1.70;;
3355;SDS011;1691;52.486;13.374;2023-05-08T10:04:34;1.67;;;1.57;;
3355;SDS011;1691;52.486;13.374;2023-05-08T10:07:03;1.60;;;1.50;;
3355;SDS011;1691;52.486;13.374;2023-05-08T10:09:30;1.50;;;1.40;;
3355;SDS011;1691;52.486;13.374;2023-05-08T10:12:15;1.57;;;1.43;;
3355;SDS011;1691;52.486;13.374;2023-05-08T10:14:43;1.10;;;1.10;;
3355;SDS011;1691;52.486;13.374;2023-05-08T10:17:12;2.13;;;2.03;;
3355;SDS011;1691;52.486;13.374;2023-05-08T10:19:45;2.50;;;2.30;;
3355;SDS011;1691;52.486;13.374;2023-05-08T10:22:18;2.83;;;1.83;;
3355;SDS011;1691;52.486;13.374;2023-05-08T10:24:52;3.03;;;2.13;;
3355;SDS011;1691;52.486;13.374;2023-05-08T10:27:32;1.70;;;1.60;;
3355;SDS011;1691;52.486;13.374;2023-05-08T10:30:06;7.60;;;2.07;;
3355;SDS011;1691;52.486;13.374;2023-05-08T10:32:42;9.37;;;2.00;;
3355;SDS011;1691;52.486;13.374;2023-05-08T10:35:11;2.90;;;2.30;;
3355;SDS011;1691;52.486;13.374;2023-05-08T10:37:38;5.73;;;2.33;;
3355;SDS011;1691;52.486;13.374;2023-05-08T10:40:08;3.40;;;2.00;;
3355;SDS011;1691;52.486;13.374;2023-05-08T10:42:37;2.10;;;2.00;;
3355;SDS011;1691;52.486;13.374;2023-05-08T10:45:05;10.00;;;1.93;;
3355;SDS011;1691;52.486;13.374;2023-05-08T10:47:43;3.83;;;1.83;;
3355;SDS011;1691;52.486;13.374;2023-05-08T10:52:58;2.17;;;2.07;;
3355;SDS011;1691;52.486;13.374;2023-05-08T10:55:54;5.67;;;1.90;;
3355;SDS011;1691;52.486;13.374;2023-05-08T11:03:18;7.20;;;1.53;;
3355;SDS011;1691;52.486;13.374;2023-05-08T11:05:58;9.83;;;2.00;;
3355;SDS011;1691;52.486;13.374;2023-05-08T11:08:27;3.07;;;2.00;;
3355;SDS011;1691;52.486;13.374;2023-05-08T11:13:29;2.10;;;1.90;;
3355;SDS011;1691;52.486;13.374;2023-05-08T11:16:15;6.73;;;2.00;;
3355;SDS011;1691;52.486;13.374;2023-05-08T11:27:15;2.77;;;2.57;;
3355;SDS011;1691;52.486;13.374;2023-05-08T11:29:42;2.67;;;2.47;;
3355;SDS011;1691;52.486;13.374;2023-05-08T11:32:12;1.93;;;1.83;;
3355;SDS011;1691;52.486;13.374;2023-05-08T11:37:19;3.27;;;1.50;;
3355;SDS011;1691;52.486;13.374;2023-05-08T11:39:49;3.73;;;2.27;;
3355;SDS011;1691;52.486;13.374;2023-05-08T11:45:02;1.90;;;1.80;;
3355;SDS011;1691;52.486;13.374;2023-05-08T11:47:36;11.60;;;2.13;;
3355;SDS011;1691;52.486;13.374;2023-05-08T11:50:07;2.57;;;2.37;;
3355;SDS011;1691;52.486;13.374;2023-05-08T11:52:36;3.83;;;2.27;;
3355;SDS011;1691;52.486;13.374;2023-05-08T11:55:06;3.27;;;3.07;;
3355;SDS011;1691;52.486;13.374;2023-05-08T11:57:35;5.27;;;2.30;;
3355;SDS011;1691;52.486;13.374;2023-05-08T12:00:09;4.80;;;2.13;;
3355;SDS011;1691;52.486;13.374;2023-05-08T12:02:39;1.70;;;1.60;;
3355;SDS011;1691;52.486;13.374;2023-05-08T12:05:09;1.90;;;1.80;;
3355;SDS011;1691;52.486;13.374;2023-05-08T12:07:46;2.30;;;2.20;;
3355;SDS011;1691;52.486;13.374;2023-05-08T12:10:13;2.37;;;2.27;;
3355;SDS011;1691;52.486;13.374;2023-05-08T12:12:42;9.63;;;1.77;;
3355;SDS011;1691;52.486;13.374;2023-05-08T12:15:11;9.30;;;2.10;;
3355;SDS011;1691;52.486;13.374;2023-05-08T12:17:41;4.37;;;2.20;;
3355;SDS011;1691;52.486;13.374;2023-05-08T12:20:09;2.30;;;2.20;;
3355;SDS011;1691;52.486;13.374;2023-05-08T12:22:40;1.93;;;1.83;;
3355;SDS011;1691;52.486;13.374;2023-05-08T12:25:15;2.60;;;2.20;;
3355;SDS011;1691;52.486;13.374;2023-05-08T12:27:43;7.37;;;2.43;;
3355;SDS011;1691;52.486;13.374;2023-05-08T12:30:11;9.20;;;1.90;;
3355;SDS011;1691;52.486;13.374;2023-05-08T12:32:40;5.80;;;2.20;;
3355;SDS011;1691;52.486;13.374;2023-05-08T12:35:09;3.30;;;1.63;;
3355;SDS011;1691;52.486;13.374;2023-05-08T12:37:38;1.53;;;1.43;;
3355;SDS011;1691;52.486;13.374;2023-05-08T12:40:06;2.00;;;1.77;;
3355;SDS011;1691;52.486;13.374;2023-05-08T12:42:45;2.33;;;2.23;;
3355;SDS011;1691;52.486;13.374;2023-05-08T12:45:24;7.50;;;1.93;;
3355;SDS011;1691;52.486;13.374;2023-05-08T12:48:02;2.20;;;1.83;;
3355;SDS011;1691;52.486;13.374;2023-05-08T12:50:39;2.17;;;1.57;;
3355;SDS011;1691;52.486;13.374;2023-05-08T12:53:09;1.70;;;1.60;;
3355;SDS011;1691;52.486;13.374;2023-05-08T12:55:53;8.83;;;2.50;;
3355;SDS011;1691;52.486;13.374;2023-05-08T12:58:23;5.23;;;2.07;;
3355;SDS011;1691;52.486;13.374;2023-05-08T13:01:08;15.83;;;2.17;;
3355;SDS011;1691;52.486;13.374;2023-05-08T13:03:38;2.27;;;2.17;;
3355;SDS011;1691;52.486;13.374;2023-05-08T13:06:06;5.27;;;2.13;;
3355;SDS011;1691;52.486;13.374;2023-05-08T13:08:51;2.53;;;2.43;;
3355;SDS011;1691;52.486;13.374;2023-05-08T13:11:27;3.60;;;1.83;;
3355;SDS011;1691;52.486;13.374;2023-05-08T13:13:59;4.60;;;2.00;;
3355;SDS011;1691;52.486;13.374;2023-05-08T13:16:26;7.10;;;2.10;;
3355;SDS011;1691;52.486;13.374;2023-05-08T13:18:54;2.03;;;1.70;;
3355;SDS011;1691;52.486;13.374;2023-05-08T13:21:21;4.63;;;2.00;;
3355;SDS011;1691;52.486;13.374;2023-05-08T13:23:48;5.33;;;1.97;;
3355;SDS011;1691;52.486;13.374;2023-05-08T13:26:15;9.93;;;2.07;;
3355;SDS011;1691;52.486;13.374;2023-05-08T13:28:42;3.20;;;2.07;;
3355;SDS011;1691;52.486;13.374;2023-05-08T13:31:09;2.43;;;2.23;;
3355;SDS011;1691;52.486;13.374;2023-05-08T13:33:36;2.60;;;1.70;;
3355;SDS011;1691;52.486;13.374;2023-05-08T13:36:03;3.97;;;1.90;;
3355;SDS011;1691;52.486;13.374;2023-05-08T13:38:30;1.53;;;1.43;;
3355;SDS011;1691;52.486;13.374;2023-05-08T13:40:57;4.70;;;1.80;;
3355;SDS011;1691;52.486;13.374;2023-05-08T13:43:24;2.10;;;1.90;;
3355;SDS011;1691;52.486;13.374;2023-05-08T13:45:51;4.03;;;3.30;;
3355;SDS011;1691;52.486;13.374;2023-05-08T13:48:19;4.70;;;2.17;;
3355;SDS011;1691;52.486;13.374;2023-05-08T13:50:46;2.50;;;1.60;;
3355;SDS011;1691;52.486;13.374;2023-05-08T13:53:13;11.90;;;2.03;;
3355;SDS011;1691;52.486;13.374;2023-05-08T13:55:40;1.70;;;1.60;;
3355;SDS011;1691;52.486;13.374;2023-05-08T13:58:07;1.80;;;1.70;;
3355;SDS011;1691;52.486;13.374;2023-05-08T14:00:34;2.90;;;1.90;;
3355;SDS011;1691;52.486;13.374;2023-05-08T14:03:01;2.13;;;1.53;;
3355;SDS011;1691;52.486;13.374;2023-05-08T14:05:28;5.87;;;2.07;;
3355;SDS011;1691;52.486;13.374;2023-05-08T14:07:55;1.67;;;1.57;;
3355;SDS011;1691;52.486;13.374;2023-05-08T14:10:22;2.50;;;2.33;;
3355;SDS011;1691;52.486;13.374;2023-05-08T14:12:49;11.50;;;2.17;;
3355;SDS011;1691;52.486;13.374;2023-05-08T14:15:16;1.60;;;1.50;;
3355;SDS011;1691;52.486;13.374;2023-05-08T14:17:43;1.57;;;1.47;;
3355;SDS011;1691;52.486;13.374;2023-05-08T14:20:10;2.07;;;1.87;;
3355;SDS011;1691;52.486;13.374;2023-05-08T14:22:38;1.43;;;1.33;;
3355;SDS011;1691;52.486;13.374;2023-05-08T14:25:05;3.33;;;2.20;;
3355;SDS011;1691;52.486;13.374;2023-05-08T14:27:34;1.87;;;1.77;;
3355;SDS011;1691;52.486;13.374;2023-05-08T14:30:01;5.73;;;1.73;;
3355;SDS011;1691;52.486;13.374;2023-05-08T14:32:29;2.20;;;2.00;;
3355;SDS011;1691;52.486;13.374;2023-05-08T14:34:56;3.70;;;2.07;;
3355;SDS011;1691;52.486;13.374;2023-05-08T14:37:23;1.80;;;1.70;;
3355;SDS011;1691;52.486;13.374;2023-05-08T14:39:51;2.00;;;1.90;;
3355;SDS011;1691;52.486;13.374;2023-05-08T14:42:19;2.70;;;1.67;;
3355;SDS011;1691;52.486;13.374;2023-05-08T14:44:49;2.47;;;1.90;;
3355;SDS011;1691;52.486;13.374;2023-05-08T14:47:16;1.63;;;1.40;;
3355;SDS011;1691;52.486;13.374;2023-05-08T14:49:44;2.10;;;2.00;;
3355;SDS011;1691;52.486;13.374;2023-05-08T14:52:11;2.90;;;2.70;;
3355;SDS011;1691;52.486;13.374;2023-05-08T14:54:38;7.83;;;2.17;;
3355;SDS011;1691;52.486;13.374;2023-05-08T14:57:05;2.00;;;1.90;;
3355;SDS011;1691;52.486;13.374;2023-05-08T14:59:32;2.00;;;1.90;;
3355;SDS011;1691;52.486;13.374;2023-05-08T15:02:02;3.43;;;1.40;;
3355;SDS011;1691;52.486;13.374;2023-05-08T15:04:29;8.60;;;2.53;;
3355;SDS011;1691;52.486;13.374;2023-05-08T15:06:57;2.87;;;2.67;;
3355;SDS011;1691;52.486;13.374;2023-05-08T15:09:24;4.13;;;1.93;;
3355;SDS011;1691;52.486;13.374;2023-05-08T15:11:51;3.20;;;3.00;;
3355;SDS011;1691;52.486;13.374;2023-05-08T15:14:18;2.10;;;2.00;;
3355;SDS011;1691;52.486;13.374;2023-05-08T15:16:45;2.53;;;2.03;;
3355;SDS011;1691;52.486;13.374;2023-05-08T15:19:12;2.83;;;2.37;;
3355;SDS011;1691;52.486;13.374;2023-05-08T15:21:39;3.20;;;1.70;;
3355;SDS011;1691;52.486;13.374;2023-05-08T15:24:06;1.90;;;1.80;;
3355;SDS011;1691;52.486;13.374;2023-05-08T15:26:34;1.70;;;1.57;;
3355;SDS011;1691;52.486;13.374;2023-05-08T15:29:01;1.90;;;1.80;;
3355;SDS011;1691;52.486;13.374;2023-05-08T15:31:28;2.00;;;1.90;;
3355;SDS011;1691;52.486;13.374;2023-05-08T15:33:55;2.00;;;1.90;;
3355;SDS011;1691;52.486;13.374;2023-05-08T15:36:22;2.47;;;2.33;;
3355;SDS011;1691;52.486;13.374;2023-05-08T15:38:50;8.17;;;2.37;;
3355;SDS011;1691;52.486;13.374;2023-05-08T15:41:19;6.00;;;2.00;;
3355;SDS011;1691;52.486;13.374;2023-05-08T15:43:47;2.60;;;2.50;;
3355;SDS011;1691;52.486;13.374;2023-05-08T15:46:14;1.80;;;1.70;;
3355;SDS011;1691;52.486;13.374;2023-05-08T15:48:41;3.63;;;2.10;;
3355;SDS011;1691;52.486;13.374;2023-05-08T15:51:08;2.53;;;2.03;;
3355;SDS011;1691;52.486;13.374;2023-05-08T15:53:36;5.07;;;2.00;;
3355;SDS011;1691;52.486;13.374;2023-05-08T15:56:04;2.30;;;2.20;;
3355;SDS011;1691;52.486;13.374;2023-05-08T15:58:32;2.20;;;2.10;;
3355;SDS011;1691;52.486;13.374;2023-05-08T16:00:59;5.37;;;2.50;;
3355;SDS011;1691;52.486;13.374;2023-05-08T16:03:26;4.47;;;1.93;;
3355;SDS011;1691;52.486;13.374;2023-05-08T16:05:53;3.77;;;2.17;;
3355;SDS011;1691;52.486;13.374;2023-05-08T16:08:20;2.00;;;1.90;;
3355;SDS011;1691;52.486;13.374;2023-05-08T16:10:47;4.83;;;2.10;;
3355;SDS011;1691;52.486;13.374;2023-05-08T16:13:14;2.33;;;2.23;;
3355;SDS011;1691;52.486;13.374;2023-05-08T16:15:41;2.30;;;1.70;;
3355;SDS011;1691;52.486;13.374;2023-05-08T16:18:08;2.83;;;2.70;;
3355;SDS011;1691;52.486;13.374;2023-05-08T16:20:38;3.77;;;2.00;;
3355;SDS011;1691;52.486;13.374;2023-05-08T16:23:06;6.10;;;2.50;;
3355;SDS011;1691;52.486;13.374;2023-05-08T16:25:34;2.00;;;1.90;;
3355;SDS011;1691;52.486;13.374;2023-05-08T16:28:01;3.90;;;2.10;;
3355;SDS011;1691;52.486;13.374;2023-05-08T16:30:28;2.13;;;2.03;;
3355;SDS011;1691;52.486;13.374;2023-05-08T16:32:56;2.17;;;2.07;;
3355;SDS011;1691;52.486;13.374;2023-05-08T16:35:23;5.13;;;2.17;;
3355;SDS011;1691;52.486;13.374;2023-05-08T16:37:50;4.13;;;2.63;;
3355;SDS011;1691;52.486;13.374;2023-05-08T16:40:18;4.60;;;2.87;;
3355;SDS011;1691;52.486;13.374;2023-05-08T16:42:45;2.40;;;2.30;;
3355;SDS011;1691;52.486;13.374;2023-05-08T16:45:12;3.00;;;2.10;;
3355;SDS011;1691;52.486;13.374;2023-05-08T16:47:40;2.70;;;2.50;;
3355;SDS011;1691;52.486;13.374;2023-05-08T16:50:07;6.10;;;2.53;;
3355;SDS011;1691;52.486;13.374;2023-05-08T16:52:35;2.20;;;2.10;;
3355;SDS011;1691;52.486;13.374;2023-05-08T16:55:03;2.40;;;2.30;;
3355;SDS011;1691;52.486;13.374;2023-05-08T16:57:31;5.70;;;1.87;;
3355;SDS011;1691;52.486;13.374;2023-05-08T16:59:58;7.57;;;2.03;;
3355;SDS011;1691;52.486;13.374;2023-05-08T17:02:26;6.30;;;2.50;;
3355;SDS011;1691;52.486;13.374;2023-05-08T17:04:53;2.73;;;2.63;;
3355;SDS011;1691;52.486;13.374;2023-05-08T17:07:21;2.30;;;2.20;;
3355;SDS011;1691;52.486;13.374;2023-05-08T17:09:53;6.00;;;2.10;;
3355;SDS011;1691;52.486;13.374;2023-05-08T17:12:22;2.40;;;2.20;;
3355;SDS011;1691;52.486;13.374;2023-05-08T17:14:50;6.90;;;3.27;;
3355;SDS011;1691;52.486;13.374;2023-05-08T17:17:17;2.90;;;2.70;;
3355;SDS011;1691;52.486;13.374;2023-05-08T17:19:44;3.07;;;2.87;;
3355;SDS011;1691;52.486;13.374;2023-05-08T17:22:11;3.90;;;2.50;;
3355;SDS011;1691;52.486;13.374;2023-05-08T17:24:38;2.33;;;2.20;;
3355;SDS011;1691;52.486;13.374;2023-05-08T17:27:06;7.77;;;2.90;;
3355;SDS011;1691;52.486;13.374;2023-05-08T17:29:33;3.53;;;2.60;;
3355;SDS011;1691;52.486;13.374;2023-05-08T17:32:00;5.37;;;2.47;;
3355;SDS011;1691;52.486;13.374;2023-05-08T17:34:27;3.83;;;2.30;;